SondeTracker

Meteorological Radiosondes Database

Operations

Sounding was ended - last measurement: 2022-12-07 13:00:23z

MAP
About Radiosonde

Number: U2430390

Launch Site: Lisbon (PT)

Type: RS41

AUX: NO

Frequency: 403.020 MHz

Max Speed: 159 km/h at 11058 m

Average Speed: 46.86 km/h

Max Altitude: 27714 m

Average Ascent Speed: 5.09 m/s

Average Descent Speed: 32.94 m/s

Status: FOUND

Status Changes
Launch Site Type AUX Frequency Status Finder Landing Point Description Changes made by
MHz FOUND CT1FJO 0, 0 [via SondeHub] [BOT]AUTO-STATUS - 2022-12-07 17:33:19z
APRS Statistics

Received Frames: 449

First Frame [UTC]: 2022-12-07 11:16:33z

Last Frame [UTC]: 2022-12-07 13:00:23z

Receivers: CS5LAS-11, CT1EDG, CT1ESY-11, CT2GAI-13, CT2IRJ, CT2IWF-11, CT7ABP-10, CT7ARW-11, CT7AUS-11

Flight Time: 01:43:50 h

Distance From First Measurement: 59.01 km

Nearest City: Coruche (PT) [5.91 km]

Nearest Hunter: CT2IRJ [19.24 km]

Ground Altitude: 92 m

Distance from QTH: 0.00 km

APRS Data
Receiver Number Date/Time [UTC] φ λ Course [°] Speed [km/h] Altitude [m] Description
CT2GAI-13U24303902022-12-07 13:00:2339.0101-8.514227630246Clb=-16.3m/s t=12.7C h=90.5% p=986.0hPa 403.021 MHz Type=RS41-SGP ser=U2430390 Radiosonde
CT7ABP-10U24303902022-12-07 12:59:1639.01-8.5136329033344Clb=-16.7m/s t=12.1C h=85.7% p=974.3hPa 403.020 MHz Type=RS41-SGP ser=U2430390 Radiosonde
CT2GAI-13U24303902022-12-07 12:59:1239.01-8.5136329033344Clb=-16.7m/s t=12.1C h=85.7% p=974.3hPa 403.021 MHz Type=RS41-SGP ser=U2430390 Radiosonde
CS5LAS-11U24303902022-12-07 12:59:0639.0098-8.5128830839456Clb=-17.4m/s 403.02MHz Type=RS41-SGP Aux[] BK=Off RS41Tracker 1.17
CT2IWF-11U24303902022-12-07 12:59:0439.0097-8.5127831041472Clb=-17.0m/s t=11.4C h=84.1% p=959.6hPa 403.020 MHz Type=RS41-SGP ser=U2430390 Radiosonde
CT7AUS-11U24303902022-12-07 12:59:0339.008-8.5111732850737Clb=-16.1m/s t=10.7C h=89.9% p=929.1hPa 403.020 MHz Type=RS41-SGP ser=U2430390 Radiosonde
CS5LAS-11U24303902022-12-07 12:58:4639.0078-8.51132950769Clb=-16.5m/s 403.02MHz Type=RS41-SGP Aux[] BK=Off RS41Tracker 1.17
CT2IRJU24303902022-12-07 12:58:4439.0078-8.51133050769Clb=-16.5m/s p=925.8hPa t=10.4C h=91.5% 403.020MHz Type=RS41-SGP TxOff=8h16m rdzTTGOsonde
CT2IWF-11U24303902022-12-07 12:58:3439.0066-8.5101433043957Clb=-16.2m/s t=9.4C h=99.0% p=904.9hPa 403.020 MHz Type=RS41-SGP ser=U2430390 Radiosonde
CS5LAS-11U24303902022-12-07 12:58:2639.0058-8.50972341501083Clb=-16.7m/s 403.02MHz Type=RS41-SGP Aux[] BK=Off RS41Tracker 1.17
CT2IRJU24303902022-12-07 12:58:2339.0056-8.50967343501099Clb=-16.8m/s p=889.7hPa t=9.4C h=116.7% 403.020MHz Type=RS41-SGP TxOff=8h17m rdzTTGOsonde
CT7ABP-10U24303902022-12-07 12:58:1539.0046-8.50928346481244Clb=-16.9m/s t=8.6C h=100.0% p=874.5hPa 403.020 MHz Type=RS41-SGP ser=U2430390 Radiosonde
CS5LAS-11U24303902022-12-07 12:58:0639.0035-8.50896347411406Clb=-16.6m/s 403.02MHz Type=RS41-SGP Aux[] BK=Off RS41Tracker 1.17
CS5LAS-11U24303902022-12-07 12:57:4639.0012-8.50829351481736Clb=-17.4m/s 403.02MHz Type=RS41-SGP Aux[] BK=Off RS41Tracker 1.17
CS5LAS-11U24303902022-12-07 12:57:2638.9988-8.50797353482073Clb=-17.8m/s 403.02MHz Type=RS41-SGP Aux[] BK=Off RS41Tracker 1.17
CS5LAS-11U24303902022-12-07 12:57:0638.9964-8.507611502420Clb=-17.6m/s 403.02MHz Type=RS41-SGP Aux[] BK=Off RS41Tracker 1.17
CS5LAS-11U24303902022-12-07 12:56:4638.9942-8.507592392777Clb=-18.8m/s 403.02MHz Type=RS41-SGP Aux[] BK=Off RS41Tracker 1.17
CS5LAS-11U24303902022-12-07 12:56:2638.9921-8.507810393138Clb=-17.8m/s 403.02MHz Type=RS41-SGP Aux[] BK=Off RS41Tracker 1.17
CS5LAS-11U24303902022-12-07 12:56:0638.9899-8.508229463488Clb=-18.5m/s 403.02MHz Type=RS41-SGP Aux[] BK=Off RS41Tracker 1.17
CS5LAS-11U24303902022-12-07 12:55:4638.9878-8.5085812433844Clb=-18.2m/s 403.02MHz Type=RS41-SGP Aux[] BK=Off RS41Tracker 1.17
CS5LAS-11U24303902022-12-07 12:55:2638.9857-8.509111414204Clb=-19.1m/s 403.02MHz Type=RS41-SGP Aux[] BK=Off RS41Tracker 1.17
CS5LAS-11U24303902022-12-07 12:54:4638.982-8.5108924434971Clb=-20.3m/s 403.02MHz Type=RS41-SGP Aux[] BK=Off RS41Tracker 1.17
CS5LAS-11U24303902022-12-07 12:54:2638.98-8.5120129485368Clb=-20.1m/s 403.02MHz Type=RS41-SGP Aux[] BK=Off RS41Tracker 1.17
CS5LAS-11U24303902022-12-07 12:54:0638.9776-8.513426565762Clb=-20.4m/s 403.02MHz Type=RS41-SGP Aux[] BK=Off RS41Tracker 1.17
CS5LAS-11U24303902022-12-07 12:53:4638.9751-8.5145918526169Clb=-20.8m/s 403.02MHz Type=RS41-SGP Aux[] BK=Off RS41Tracker 1.17
CS5LAS-11U24303902022-12-07 12:53:0638.9704-8.5174930447014Clb=-22.9m/s 403.02MHz Type=RS41-SGP Aux[] BK=Off RS41Tracker 1.17
CS5LAS-11U24303902022-12-07 12:52:4638.9684-8.5186418467465Clb=-23.4m/s 403.02MHz Type=RS41-SGP Aux[] BK=Off RS41Tracker 1.17
CS5LAS-11U24303902022-12-07 12:52:2638.9662-8.5201446527912Clb=-23.9m/s 403.02MHz Type=RS41-SGP Aux[] BK=Off RS41Tracker 1.17
CS5LAS-11U24303902022-12-07 12:51:4638.964-8.5261571488855Clb=-25.2m/s 403.02MHz Type=RS41-SGP Aux[] BK=Off RS41Tracker 1.17
CS5LAS-11U24303902022-12-07 12:51:2638.9632-8.5291980619352Clb=-25.6m/s 403.02MHz Type=RS41-SGP Aux[] BK=Off RS41Tracker 1.17
CS5LAS-11U24303902022-12-07 12:51:0638.9628-8.5337283879850Clb=-27.1m/s 403.02MHz Type=RS41-SGP Aux[] BK=Off RS41Tracker 1.17
CS5LAS-11U24303902022-12-07 12:50:4638.9618-8.539757910910432Clb=-31.6m/s 403.02MHz Type=RS41-SGP Aux[] BK=Off RS41Tracker 1.17
CS5LAS-11U24303902022-12-07 12:50:2638.9608-8.548438715911058Clb=-32.9m/s 403.02MHz Type=RS41-SGP Aux[] BK=Off RS41Tracker 1.17
CS5LAS-11U24303902022-12-07 12:49:4638.9591-8.56464848912421Clb=-36.4m/s 403.02MHz Type=RS41-SGP Aux[] BK=Off RS41Tracker 1.17
CS5LAS-11U24303902022-12-07 12:49:2638.9582-8.56917667613146Clb=-39.6m/s 403.02MHz Type=RS41-SGP Aux[] BK=Off RS41Tracker 1.17
CS5LAS-11U24303902022-12-07 12:49:0638.9576-8.57344874313903Clb=-40.1m/s 403.02MHz Type=RS41-SGP Aux[] BK=Off RS41Tracker 1.17
CS5LAS-11U24303902022-12-07 12:48:0638.9563-8.58266803316433Clb=-47.7m/s 403.02MHz Type=RS41-SGP Aux[] BK=Off RS41Tracker 1.17
CS5LAS-11U24303902022-12-07 12:47:2638.9563-8.586291032818413Clb=-54.7m/s 403.02MHz Type=RS41-SGP Aux[] BK=Off RS41Tracker 1.17
CS5LAS-11U24303902022-12-07 12:47:0638.9567-8.58749116719524Clb=-58.0m/s 403.02MHz Type=RS41-SGP Aux[] BK=Off RS41Tracker 1.17
CS5LAS-11U24303902022-12-07 12:46:4638.9565-8.588071221520716Clb=-63.0m/s 403.02MHz Type=RS41-SGP Aux[] BK=Off RS41Tracker 1.17
CT2IWF-11U24303902022-12-07 12:46:3338.9594-8.593511224127708Clb=-11.1m/s t=-57.1C h=1.1% p=15.4hPa 403.020 MHz Type=RS41-SGP ser=U2430390 Radiosonde
CT7AUS-11U24303902022-12-07 12:46:2938.9595-8.593621224127714Clb=-1.0m/s t=-57.3C h=1.1% p=15.4hPa 403.020 MHz Type=RS41-SGP ser=U2430390 Radiosonde
CS5LAS-11U24303902022-12-07 12:46:2638.9572-8.58881731922012Clb=-69.2m/s 403.02MHz Type=RS41-SGP Aux[] BK=Off RS41Tracker 1.17
CT7ABP-10U24303902022-12-07 12:46:2538.9596-8.593961123527701Clb=4.7m/s t=-57.8C h=0.9% p=15.4hPa 403.020 MHz Type=RS41-SGP ser=U2430390 Radiosonde
CT2GAI-13U24303902022-12-07 12:46:1638.9598-8.59431423127679Clb=4.8m/s t=-57.7C h=0.9% p=15.4hPa 403.021 MHz Type=RS41-SGP ser=U2430390 Radiosonde
CT2IRJU24303902022-12-07 12:46:0738.96-8.594471352827664Clb=5.9m/s p=15.5hPa t=-57.8C h=0.9% 403.020MHz Type=RS41-SGP rdzTTGOsonde
CT1ESY-11U24303902022-12-07 12:45:5538.9601-8.59541782827614Clb=4.7m/s t=-57.8C h=0.9% p=15.6hPa 403.020 MHz Type=RS41-SGP ser=U2430390 Radiosonde
CT1EDGU24303902022-12-07 12:45:5338.9601-8.5955852427608Clb=5.9m/s t=-57.9C h=0.9% p=15.6hPa 403.021 MHz Type=RS41-SGP ser=U2430390 Radiosonde
CS5LAS-11U24303902022-12-07 12:45:4638.9583-8.589661103024897Clb=-79.0m/s 403.02MHz Type=RS41-SGP Aux[] BK=Off RS41Tracker 1.17
CT2IWF-11U24303902022-12-07 12:45:3538.9601-8.59637824127555Clb=4.6m/s t=-57.7C h=0.9% p=15.8hPa 403.020 MHz Type=RS41-SGP ser=U2430390 Radiosonde
CT7AUS-11U24303902022-12-07 12:45:3338.9601-8.5965763927550Clb=4.6m/s t=-57.7C h=0.9% p=15.8hPa 403.020 MHz Type=RS41-SGP ser=U2430390 Radiosonde
CT2IRJU24303902022-12-07 12:45:3038.9601-8.5965784127550Clb=4.6m/s p=15.8hPa t=-57.7C h=0.9% 403.020MHz Type=RS41-SGP rdzTTGOsonde
CS5LAS-11U24303902022-12-07 12:45:2638.9589-8.591781143326554Clb=-83.0m/s 403.02MHz Type=RS41-SGP Aux[] BK=Off RS41Tracker 1.17
CS5LAS-11U24303902022-12-07 12:45:0638.9594-8.593511224327708Clb=-11.1m/s 403.02MHz Type=RS41-SGP Aux[] BK=Off RS41Tracker 1.17
CS5LAS-11U24303902022-12-07 12:44:2438.9599-8.59737853127496Clb=4.9m/s 403.02MHz Type=RS41-SGP Aux[] BK=Off RS41Tracker 1.17
CS5LAS-11U24303902022-12-07 12:44:0238.9594-8.59956752427387Clb=6.0m/s 403.02MHz Type=RS41-SGP Aux[] BK=Off RS41Tracker 1.17
CT1EDGU24303902022-12-07 12:44:0038.9595-8.601331062427279Clb=5.9m/s t=-57.4C h=0.8% p=16.5hPa 403.021 MHz Type=RS41-SGP ser=U2430390 Radiosonde
CT2IWF-11U24303902022-12-07 12:43:4838.9595-8.60191633027232Clb=5.4m/s t=-57.6C h=0.9% p=16.6hPa 403.020 MHz Type=RS41-SGP ser=U2430390 Radiosonde
CT7AUS-11U24303902022-12-07 12:43:4738.9594-8.602633127227Clb=4.8m/s t=-57.6C h=0.8% p=16.6hPa 403.020 MHz Type=RS41-SGP ser=U2430390 Radiosonde
CT2IRJU24303902022-12-07 12:43:4638.9594-8.602653327227Clb=4.8m/s p=16.6hPa t=-57.6C h=0.8% 403.020MHz Type=RS41-SGP rdzTTGOsonde
CT1EDGU24303902022-12-07 12:43:2338.9594-8.603441012227121Clb=4.3m/s t=-58.8C h=0.9% p=16.9hPa 403.021 MHz Type=RS41-SGP ser=U2430390 Radiosonde
CT2IRJU24303902022-12-07 12:43:2238.9594-8.603441032427121Clb=4.3m/s p=16.9hPa t=-58.8C h=1.0% 403.020MHz Type=RS41-SGP rdzTTGOsonde
CS5LAS-11U24303902022-12-07 12:43:0238.9596-8.60411192027075Clb=6.3m/s 403.02MHz Type=RS41-SGP Aux[] BK=Off RS41Tracker 1.17
CT1EDGU24303902022-12-07 12:42:5338.9607-8.605681284126959Clb=4.3m/s t=-58.4C h=0.9% p=17.4hPa 403.021 MHz Type=RS41-SGP ser=U2430390 Radiosonde
CT1ESY-11U24303902022-12-07 12:42:5038.9608-8.6061113526944Clb=4.9m/s t=-58.4C h=0.9% p=17.4hPa 403.020 MHz Type=RS41-SGP ser=U2430390 Radiosonde
CT2IWF-11U24303902022-12-07 12:42:3938.9612-8.606621323526910Clb=5.8m/s t=-58.4C h=0.9% p=17.5hPa 403.020 MHz Type=RS41-SGP ser=U2430390 Radiosonde
CT7AUS-11U24303902022-12-07 12:42:3738.9612-8.606711243526904Clb=5.3m/s t=-58.3C h=0.9% p=17.5hPa 403.020 MHz Type=RS41-SGP ser=U2430390 Radiosonde
CT2IRJU24303902022-12-07 12:42:3638.9612-8.60671263726904Clb=5.3m/s p=17.5hPa t=-58.3C h=1.0% 403.020MHz Type=RS41-SGP rdzTTGOsonde
CS5LAS-11U24303902022-12-07 12:42:2038.9618-8.607931254326853Clb=5.8m/s 403.02MHz Type=RS41-SGP Aux[] BK=Off RS41Tracker 1.17
CT2IRJU24303902022-12-07 12:42:1038.9624-8.609191234826802Clb=5.5m/s p=17.8hPa t=-58.1C h=1.0% 403.020MHz Type=RS41-SGP rdzTTGOsonde
CT1ESY-11U24303902022-12-07 12:42:0738.9626-8.609681234426780Clb=5.4m/s t=-58.1C h=0.9% p=17.9hPa 403.020 MHz Type=RS41-SGP ser=U2430390 Radiosonde
CT2IWF-11U24303902022-12-07 12:42:0038.963-8.610531145426751Clb=4.6m/s t=-57.9C h=0.9% p=17.9hPa 403.020 MHz Type=RS41-SGP ser=U2430390 Radiosonde
CT7AUS-11U24303902022-12-07 12:41:5938.963-8.610691175426746Clb=6.0m/s t=-57.9C h=0.9% p=18.0hPa 403.020 MHz Type=RS41-SGP ser=U2430390 Radiosonde
CT2GAI-13U24303902022-12-07 12:41:5438.9633-8.611261134426725Clb=5.1m/s t=-57.9C h=0.9% p=18.0hPa 403.021 MHz Type=RS41-SGP ser=U2430390 Radiosonde
CT2IRJU24303902022-12-07 12:41:4738.9635-8.612081075226696Clb=5.9m/s p=18.1hPa t=-57.8C h=1.0% 403.020MHz Type=RS41-SGP rdzTTGOsonde
CT1EDGU24303902022-12-07 12:41:3938.9639-8.6137974326648Clb=4.5m/s t=-57.7C h=0.9% p=18.3hPa 403.021 MHz Type=RS41-SGP ser=U2430390 Radiosonde
CT1ESY-11U24303902022-12-07 12:41:3438.964-8.614441074826625Clb=3.9m/s t=-57.8C h=0.9% p=18.3hPa 403.020 MHz Type=RS41-SGP ser=U2430390 Radiosonde
CT2IWF-11U24303902022-12-07 12:41:2838.9641-8.61522924826601Clb=4.3m/s t=-57.8C h=0.9% p=18.4hPa 403.020 MHz Type=RS41-SGP ser=U2430390 Radiosonde
CT7AUS-11U24303902022-12-07 12:41:2738.9641-8.61538944826596Clb=5.2m/s t=-57.8C h=0.9% p=18.4hPa 403.020 MHz Type=RS41-SGP ser=U2430390 Radiosonde
CT2IRJU24303902022-12-07 12:41:2638.9641-8.61538954826596Clb=5.2m/s p=18.4hPa t=-57.8C h=0.9% 403.020MHz Type=RS41-SGP rdzTTGOsonde
CT2IRJU24303902022-12-07 12:41:0638.9642-8.61794963526495Clb=5.8m/s p=18.7hPa t=-58.2C h=1.0% 403.020MHz Type=RS41-SGP rdzTTGOsonde
CS5LAS-11U24303902022-12-07 12:41:0038.9644-8.61882882626455Clb=6.4m/s 403.02MHz Type=RS41-SGP Aux[] BK=Off RS41Tracker 1.17
CS5LAS-11U24303902022-12-07 12:40:4038.9647-8.620731033126352Clb=4.6m/s 403.02MHz Type=RS41-SGP Aux[] BK=Off RS41Tracker 1.17
CS5LAS-11U24303902022-12-07 12:40:2038.965-8.621981361926248Clb=4.6m/s 403.02MHz Type=RS41-SGP Aux[] BK=Off RS41Tracker 1.17
CS5LAS-11U24303902022-12-07 12:40:0038.9657-8.623371112226146Clb=5.7m/s 403.02MHz Type=RS41-SGP Aux[] BK=Off RS41Tracker 1.17
CS5LAS-11U24303902022-12-07 12:39:4038.9665-8.625261223926046Clb=5.8m/s 403.02MHz Type=RS41-SGP Aux[] BK=Off RS41Tracker 1.17
CS5LAS-11U24303902022-12-07 12:39:0038.9683-8.63018952825830Clb=5.9m/s 403.02MHz Type=RS41-SGP Aux[] BK=Off RS41Tracker 1.17
CS5LAS-11U24303902022-12-07 12:38:4038.9691-8.632421254825720Clb=6.1m/s 403.02MHz Type=RS41-SGP Aux[] BK=Off RS41Tracker 1.17
CS5LAS-11U24303902022-12-07 12:35:5838.9716-8.64591272024804Clb=5.4m/s 403.02MHz Type=RS41-SGP Aux[] BK=Off RS41Tracker 1.17
CS5LAS-11U24303902022-12-07 12:35:3838.9722-8.646751251924691Clb=3.9m/s 403.02MHz Type=RS41-SGP Aux[] BK=Off RS41Tracker 1.17
CS5LAS-11U24303902022-12-07 12:34:5838.9744-8.647781262824457Clb=5.2m/s 403.02MHz Type=RS41-SGP Aux[] BK=Off RS41Tracker 1.17
CS5LAS-11U24303902022-12-07 12:34:3838.9752-8.64891541524339Clb=6.7m/s 403.02MHz Type=RS41-SGP Aux[] BK=Off RS41Tracker 1.17
CS5LAS-11U24303902022-12-07 12:33:1838.9771-8.651791512023858Clb=5.4m/s 403.02MHz Type=RS41-SGP Aux[] BK=Off RS41Tracker 1.17
CS5LAS-11U24303902022-12-07 12:32:5838.9779-8.652531171923738Clb=6.2m/s 403.02MHz Type=RS41-SGP Aux[] BK=Off RS41Tracker 1.17
CS5LAS-11U24303902022-12-07 12:32:3838.9785-8.653381661723622Clb=6.9m/s 403.02MHz Type=RS41-SGP Aux[] BK=Off RS41Tracker 1.17
CS5LAS-11U24303902022-12-07 12:31:5838.9793-8.65314256723400Clb=6.3m/s 403.02MHz Type=RS41-SGP Aux[] BK=Off RS41Tracker 1.17
CS5LAS-11U24303902022-12-07 12:31:3838.9796-8.65254227723293Clb=4.2m/s 403.02MHz Type=RS41-SGP Aux[] BK=Off RS41Tracker 1.17
CS5LAS-11U24303902022-12-07 12:30:5838.9809-8.650882082423094Clb=4.3m/s 403.02MHz Type=RS41-SGP Aux[] BK=Off RS41Tracker 1.17
CS5LAS-11U24303902022-12-07 12:28:3838.9849-8.644631831522433Clb=5.5m/s 403.02MHz Type=RS41-SGP Aux[] BK=Off RS41Tracker 1.17
CS5LAS-11U24303902022-12-07 12:28:1838.9857-8.645021441122335Clb=5.9m/s 403.02MHz Type=RS41-SGP Aux[] BK=Off RS41Tracker 1.17
CS5LAS-11U24303902022-12-07 12:27:5838.9862-8.645671501922232!w|2!Clb=4.9m/s 403.02MHz Type=RS41-SGP Aux[] BK=Off RS41Tracker 1.17
CS5LAS-11U24303902022-12-07 12:27:3838.9872-8.646551542822130Clb=4.5m/s 403.02MHz Type=RS41-SGP Aux[] BK=Off RS41Tracker 1.17
CS5LAS-11U24303902022-12-07 12:27:1838.9884-8.647651402422024Clb=5.9m/s 403.02MHz Type=RS41-SGP Aux[] BK=Off RS41Tracker 1.17
CS5LAS-11U24303902022-12-07 12:26:5838.9893-8.648881321921920Clb=5.6m/s 403.02MHz Type=RS41-SGP Aux[] BK=Off RS41Tracker 1.17
CS5LAS-11U24303902022-12-07 12:26:3838.99-8.649781272021813Clb=3.8m/s 403.02MHz Type=RS41-SGP Aux[] BK=Off RS41Tracker 1.17
CS5LAS-11U24303902022-12-07 12:25:5838.9905-8.651741361721600Clb=5.2m/s 403.02MHz Type=RS41-SGP Aux[] BK=Off RS41Tracker 1.17
CS5LAS-11U24303902022-12-07 12:25:3838.9912-8.652341362221500Clb=5.7m/s 403.02MHz Type=RS41-SGP Aux[] BK=Off RS41Tracker 1.17
CT2GAI-13U24303902022-12-07 12:25:2938.9927-8.655931152221199Clb=4.8m/s t=-62.3C h=1.6% p=44.1hPa 403.021 MHz Type=RS41-SGP ser=U2430390 Radiosonde
CT1EDGU24303902022-12-07 12:25:2138.9927-8.656141132221185Clb=4.0m/s t=-62.3C h=1.7% p=44.3hPa 403.021 MHz Type=RS41-SGP ser=U2430390 Radiosonde
CT1ESY-11U24303902022-12-07 12:25:0438.9928-8.65635109921157Clb=4.0m/s t=-62.6C h=1.6% p=44.4hPa 403.020 MHz Type=RS41-SGP ser=U2430390 Radiosonde
CT2IRJU24303902022-12-07 12:24:5038.9929-8.656481101721138Clb=5.4m/s p=44.6hPa t=-62.7C h=1.7% 403.020MHz Type=RS41-SGP rdzTTGOsonde
CT7AUS-11U24303902022-12-07 12:24:4938.9929-8.656531001921132Clb=4.6m/s t=-62.7C h=1.7% p=44.6hPa 403.020 MHz Type=RS41-SGP ser=U2430390 Radiosonde
CT2IRJU24303902022-12-07 12:24:0138.9927-8.65697191121038Clb=3.9m/s p=45.3hPa t=-62.8C h=1.7% 403.020MHz Type=RS41-SGP rdzTTGOsonde
CS5LAS-11U24303902022-12-07 12:23:5838.9927-8.65702151721015Clb=5.1m/s 403.02MHz Type=RS41-SGP Aux[] BK=Off RS41Tracker 1.17
CT1ESY-11U24303902022-12-07 12:23:5538.9927-8.6570672721005Clb=4.0m/s t=-62.6C h=1.7% p=45.6hPa 403.020 MHz Type=RS41-SGP ser=U2430390 Radiosonde
CT7AUS-11U24303902022-12-07 12:23:5338.9926-8.65714341320986Clb=5.2m/s t=-62.5C h=1.6% p=45.7hPa 403.020 MHz Type=RS41-SGP ser=U2430390 Radiosonde
CT7ABP-10U24303902022-12-07 12:23:5238.9926-8.65746961120932Clb=5.3m/s t=-62.3C h=1.7% p=46.1hPa 403.020 MHz Type=RS41-SGP ser=U2430390 Radiosonde
CS5LAS-11U24303902022-12-07 12:23:3838.9926-8.6576681520916Clb=6.1m/s 403.02MHz Type=RS41-SGP Aux[] BK=Off RS41Tracker 1.17
CT1ESY-11U24303902022-12-07 12:23:3338.9926-8.65823681920843Clb=4.9m/s t=-61.7C h=1.6% p=46.8hPa 403.020 MHz Type=RS41-SGP ser=U2430390 Radiosonde
CT2IWF-11U24303902022-12-07 12:23:2938.9925-8.65835761920832Clb=5.1m/s t=-61.8C h=1.6% p=46.9hPa 403.020 MHz Type=RS41-SGP ser=U2430390 Radiosonde
CT7AUS-11U24303902022-12-07 12:23:2738.9925-8.65841851720827Clb=4.0m/s t=-61.9C h=1.6% p=46.9hPa 403.020 MHz Type=RS41-SGP ser=U2430390 Radiosonde
CT2IRJU24303902022-12-07 12:23:2638.9925-8.65841871720827Clb=4.0m/s p=46.9hPa t=-61.9C h=1.7% 403.020MHz Type=RS41-SGP rdzTTGOsonde
CT1EDGU24303902022-12-07 12:23:0038.9923-8.65944691920717Clb=5.6m/s t=-61.6C h=1.6% p=47.8hPa 403.021 MHz Type=RS41-SGP ser=U2430390 Radiosonde
CT1ESY-11U24303902022-12-07 12:22:5238.9922-8.65996861120674Clb=4.4m/s t=-61.8C h=1.7% p=48.1hPa 403.020 MHz Type=RS41-SGP ser=U2430390 Radiosonde
CT7AUS-11U24303902022-12-07 12:22:5138.9922-8.6600476620658Clb=4.9m/s t=-61.8C h=1.7% p=48.2hPa 403.020 MHz Type=RS41-SGP ser=U2430390 Radiosonde
CT7ABP-10U24303902022-12-07 12:22:5038.9921-8.66045561920609Clb=6.7m/s t=-62.2C h=1.6% p=48.6hPa 403.020 MHz Type=RS41-SGP ser=U2430390 Radiosonde
CT2GAI-13U24303902022-12-07 12:22:4938.992-8.6605930420582Clb=6.5m/s t=-62.0C h=1.6% p=48.8hPa 403.021 MHz Type=RS41-SGP ser=U2430390 Radiosonde
CT1EDGU24303902022-12-07 12:22:4638.9919-8.66068481320548Clb=6.6m/s t=-62.0C h=1.7% p=49.1hPa 403.021 MHz Type=RS41-SGP ser=U2430390 Radiosonde
CT2IRJU24303902022-12-07 12:22:4438.9918-8.6609461520514Clb=5.0m/s p=49.3hPa t=-61.8C h=1.7% 403.020MHz Type=RS41-SGP rdzTTGOsonde
CT2IWF-11U24303902022-12-07 12:22:4338.9917-8.6609860720497Clb=5.3m/s t=-61.7C h=1.7% p=49.5hPa 403.020 MHz Type=RS41-SGP ser=U2430390 Radiosonde
CT7AUS-11U24303902022-12-07 12:22:4238.9917-8.6610346720486Clb=5.1m/s t=-61.7C h=1.7% p=49.5hPa 403.020 MHz Type=RS41-SGP ser=U2430390 Radiosonde
CS5LAS-11U24303902022-12-07 12:22:1838.9917-8.6610346920486Clb=5.1m/s 403.02MHz Type=RS41-SGP Aux[] BK=Off RS41Tracker 1.17
CT2IRJU24303902022-12-07 12:22:0738.9915-8.6614897920403Clb=5.0m/s p=50.3hPa t=-61.6C h=1.7% 403.020MHz Type=RS41-SGP rdzTTGOsonde
CS5LAS-11U24303902022-12-07 12:21:5838.9915-8.66166871720381Clb=6.0m/s 403.02MHz Type=RS41-SGP Aux[] BK=Off RS41Tracker 1.17
CS5LAS-11U24303902022-12-07 12:21:3838.9912-8.66241591920277Clb=4.4m/s 403.02MHz Type=RS41-SGP Aux[] BK=Off RS41Tracker 1.17
CS5LAS-11U24303902022-12-07 12:21:1838.9905-8.66321372020175Clb=5.0m/s 403.02MHz Type=RS41-SGP Aux[] BK=Off RS41Tracker 1.17
CS5LAS-11U24303902022-12-07 12:20:5838.9899-8.6637342920075Clb=3.8m/s 403.02MHz Type=RS41-SGP Aux[] BK=Off RS41Tracker 1.17
CS5LAS-11U24303902022-12-07 12:20:3838.9896-8.6644281919976Clb=5.2m/s 403.02MHz Type=RS41-SGP Aux[] BK=Off RS41Tracker 1.17
CS5LAS-11U24303902022-12-07 12:20:1838.9895-8.66473308919882Clb=4.4m/s 403.02MHz Type=RS41-SGP Aux[] BK=Off RS41Tracker 1.17
CS5LAS-11U24303902022-12-07 12:19:5838.9896-8.664621641319792Clb=3.5m/s 403.02MHz Type=RS41-SGP Aux[] BK=Off RS41Tracker 1.17
CS5LAS-11U24303902022-12-07 12:19:3838.99-8.66482124919707Clb=3.9m/s 403.02MHz Type=RS41-SGP Aux[] BK=Off RS41Tracker 1.17
CS5LAS-11U24303902022-12-07 12:19:1838.9901-8.66497165419621Clb=3.9m/s 403.02MHz Type=RS41-SGP Aux[] BK=Off RS41Tracker 1.17
CS5LAS-11U24303902022-12-07 12:16:3638.9953-8.67558862218859Clb=4.0m/s 403.02MHz Type=RS41-SGP Aux[] BK=Off RS41Tracker 1.17
CS5LAS-11U24303902022-12-07 12:16:1638.9953-8.67733823018748Clb=6.1m/s 403.02MHz Type=RS41-SGP Aux[] BK=Off RS41Tracker 1.17
CS5LAS-11U24303902022-12-07 12:15:5638.9952-8.67921862618642Clb=5.8m/s 403.02MHz Type=RS41-SGP Aux[] BK=Off RS41Tracker 1.17
CS5LAS-11U24303902022-12-07 12:15:3438.995-8.68106932418525Clb=6.4m/s 403.02MHz Type=RS41-SGP Aux[] BK=Off RS41Tracker 1.17
CS5LAS-11U24303902022-12-07 12:10:1238.9948-8.70989933716921Clb=5.2m/s 403.02MHz Type=RS41-SGP Aux[] BK=Off RS41Tracker 1.17
CS5LAS-11U24303902022-12-07 12:07:1238.9949-8.73179985216018Clb=6.6m/s 403.02MHz Type=RS41-SGP Aux[] BK=Off RS41Tracker 1.17
CS5LAS-11U24303902022-12-07 12:05:3038.9922-8.74849645215447Clb=5.9m/s 403.02MHz Type=RS41-SGP Aux[] BK=Off RS41Tracker 1.17
CS5LAS-11U24303902022-12-07 12:04:5038.9903-8.75382724415252Clb=4.0m/s 403.02MHz Type=RS41-SGP Aux[] BK=Off RS41Tracker 1.17
CT1EDGU24303902022-12-07 12:04:4338.9892-8.75707452815061Clb=4.0m/s t=-61.3C h=3.2% p=119.8hPa 403.021 MHz Type=RS41-SGP ser=U2430390 Radiosonde
CT7ABP-10U24303902022-12-07 12:04:4238.9892-8.75707452815061Clb=4.0m/s t=-61.3C h=3.2% p=119.8hPa 403.020 MHz Type=RS41-SGP ser=U2430390 Radiosonde
CT2IRJU24303902022-12-07 12:04:3238.989-8.75741623115039Clb=5.6m/s p=120.3hPa t=-61.1C h=3.1% 403.020MHz Type=RS41-SGP rdzTTGOsonde
CT2GAI-13U24303902022-12-07 12:04:3038.9889-8.7575563115033Clb=6.6m/s t=-61.1C h=3.0% p=120.4hPa 403.021 MHz Type=RS41-SGP ser=U2430390 Radiosonde
CT2IWF-11U24303902022-12-07 12:04:2438.9888-8.75775523115016Clb=5.5m/s t=-61.0C h=3.1% p=120.6hPa 403.020 MHz Type=RS41-SGP ser=U2430390 Radiosonde
CT7AUS-11U24303902022-12-07 12:04:1938.9887-8.75792623115006Clb=4.6m/s t=-60.8C h=3.1% p=121.0hPa 403.020 MHz Type=RS41-SGP ser=U2430390 Radiosonde
CT1ESY-11U24303902022-12-07 12:04:1738.9887-8.75801633115000Clb=6.5m/s t=-60.7C h=3.1% p=121.0hPa 403.020 MHz Type=RS41-SGP ser=U2430390 Radiosonde
CT2IRJU24303902022-12-07 12:03:5538.9883-8.7592392414926Clb=5.2m/s p=122.5hPa t=-60.3C h=2.9% 403.020MHz Type=RS41-SGP rdzTTGOsonde
CT1EDGU24303902022-12-07 12:03:5038.988-8.76002804414886Clb=4.9m/s t=-59.8C h=2.9% p=123.3hPa 403.020 MHz Type=RS41-SGP ser=U2430390 Radiosonde
CT2IWF-11U24303902022-12-07 12:03:4538.988-8.7609722414840Clb=5.8m/s t=-59.3C h=3.1% p=124.2hPa 403.020 MHz Type=RS41-SGP ser=U2430390 Radiosonde
CT7AUS-11U24303902022-12-07 12:03:4438.988-8.7611713914826Clb=7.1m/s t=-59.2C h=3.1% p=124.4hPa 403.020 MHz Type=RS41-SGP ser=U2430390 Radiosonde
CT2IRJU24303902022-12-07 12:03:4338.9879-8.76171834814804Clb=6.6m/s p=124.9hPa t=-59.1C h=3.0% 403.020MHz Type=RS41-SGP rdzTTGOsonde
CT7ABP-10U24303902022-12-07 12:03:2638.9878-8.76399934614694Clb=7.6m/s t=-58.7C h=2.8% p=127.1hPa 403.020 MHz Type=RS41-SGP ser=U2430390 Radiosonde
CT2IRJU24303902022-12-07 12:03:2138.9878-8.76471885614664Clb=5.7m/s p=127.7hPa t=-58.8C h=2.9% 403.020MHz Type=RS41-SGP rdzTTGOsonde
CT2IWF-11U24303902022-12-07 12:03:1738.9877-8.76548845714642Clb=4.6m/s t=-59.0C h=2.9% p=128.1hPa 403.020 MHz Type=RS41-SGP ser=U2430390 Radiosonde
CT7AUS-11U24303902022-12-07 12:03:1338.9877-8.76583855414633Clb=5.1m/s t=-59.2C h=2.8% p=128.3hPa 403.020 MHz Type=RS41-SGP ser=U2430390 Radiosonde
CT1ESY-11U24303902022-12-07 12:03:1038.9877-8.76636815414617Clb=4.3m/s t=-59.5C h=2.9% p=128.6hPa 403.020 MHz Type=RS41-SGP ser=U2430390 Radiosonde
CS5LAS-11U24303902022-12-07 12:03:0038.9875-8.76726806914595Clb=4.3m/s 403.02MHz Type=RS41-SGP Aux[] BK=Off RS41Tracker 1.17
CS5LAS-11U24303902022-12-07 12:02:4038.9868-8.77143835914504Clb=4.4m/s 403.02MHz Type=RS41-SGP Aux[] BK=Off RS41Tracker 1.17
CS5LAS-11U24303902022-12-07 12:02:0038.9858-8.77868814814326Clb=4.1m/s 403.02MHz Type=RS41-SGP Aux[] BK=Off RS41Tracker 1.17
CS5LAS-11U24303902022-12-07 12:00:4038.985-8.78949814413915Clb=5.6m/s 403.02MHz Type=RS41-SGP Aux[] BK=Off RS41Tracker 1.17
CS5LAS-11U24303902022-12-07 12:00:2038.9854-8.792651015713803Clb=5.5m/s 403.02MHz Type=RS41-SGP Aux[] BK=Off RS41Tracker 1.17
CS5LAS-11U24303902022-12-07 11:59:2038.9842-8.8073738913467Clb=4.9m/s 403.02MHz Type=RS41-SGP Aux[] BK=Off RS41Tracker 1.17
CS5LAS-11U24303902022-12-07 11:59:0038.9829-8.8127688713357Clb=3.8m/s 403.02MHz Type=RS41-SGP Aux[] BK=Off RS41Tracker 1.17
CS5LAS-11U24303902022-12-07 11:58:4038.9811-8.81768628713257Clb=5.0m/s 403.02MHz Type=RS41-SGP Aux[] BK=Off RS41Tracker 1.17
CS5LAS-11U24303902022-12-07 11:58:0038.9775-8.8272568013052Clb=6.5m/s 403.02MHz Type=RS41-SGP Aux[] BK=Off RS41Tracker 1.17
CS5LAS-11U24303902022-12-07 11:57:4038.9755-8.83149577612945Clb=4.8m/s 403.02MHz Type=RS41-SGP Aux[] BK=Off RS41Tracker 1.17
CS5LAS-11U24303902022-12-07 11:57:2038.9734-8.8355487612844Clb=5.0m/s 403.02MHz Type=RS41-SGP Aux[] BK=Off RS41Tracker 1.17
CS5LAS-11U24303902022-12-07 11:57:0038.9712-8.83896536512746Clb=4.7m/s 403.02MHz Type=RS41-SGP Aux[] BK=Off RS41Tracker 1.17
CS5LAS-11U24303902022-12-07 11:56:2038.9688-8.8457796112542Clb=5.5m/s 403.02MHz Type=RS41-SGP Aux[] BK=Off RS41Tracker 1.17
CS5LAS-11U24303902022-12-07 11:56:0038.9683-8.84926886112433Clb=5.3m/s 403.02MHz Type=RS41-SGP Aux[] BK=Off RS41Tracker 1.17
CS5LAS-11U24303902022-12-07 11:55:4038.968-8.85291836912326Clb=4.7m/s 403.02MHz Type=RS41-SGP Aux[] BK=Off RS41Tracker 1.17
CS5LAS-11U24303902022-12-07 11:55:2038.9679-8.85686785912223Clb=5.3m/s 403.02MHz Type=RS41-SGP Aux[] BK=Off RS41Tracker 1.17
CS5LAS-11U24303902022-12-07 11:55:0038.968-8.86143947612108Clb=6.8m/s 403.02MHz Type=RS41-SGP Aux[] BK=Off RS41Tracker 1.17
CS5LAS-11U24303902022-12-07 11:54:3838.9685-8.86689968511997Clb=6.2m/s 403.02MHz Type=RS41-SGP Aux[] BK=Off RS41Tracker 1.17
CT7AUS-11U24303902022-12-07 11:54:3438.9672-8.898538213911602Clb=4.0m/s t=-60.7C h=24.7% p=209.1hPa 403.020 MHz Type=RS41-SGP ser=U2430390 Radiosonde
CT2IRJU24303902022-12-07 11:54:2538.967-8.899868413711589Clb=5.4m/s p=209.5hPa t=-60.7C h=25.0% 403.020MHz Type=RS41-SGP rdzTTGOsonde
CT7ABP-10U24303902022-12-07 11:54:1638.9669-8.9028513311564Clb=4.0m/s t=-60.6C h=25.2% p=210.4hPa 403.020 MHz Type=RS41-SGP ser=U2430390 Radiosonde
CT2GAI-13U24303902022-12-07 11:54:0738.9667-8.904728214311537Clb=3.9m/s t=-60.6C h=23.9% p=211.3hPa 403.021 MHz Type=RS41-SGP ser=U2430390 Radiosonde
CT1EDGU24303902022-12-07 11:53:5238.9664-8.907458413911510Clb=5.0m/s t=-60.4C h=23.0% p=212.2hPa 403.020 MHz Type=RS41-SGP ser=U2430390 Radiosonde
CT1ESY-11U24303902022-12-07 11:53:5038.9663-8.90798414111505Clb=5.2m/s t=-60.4C h=23.1% p=212.4hPa 403.020 MHz Type=RS41-SGP ser=U2430390 Radiosonde
CT2IRJU24303902022-12-07 11:53:4538.9663-8.90888614311495Clb=5.9m/s p=212.7hPa t=-60.3C h=23.2% 403.020MHz Type=RS41-SGP rdzTTGOsonde
CT2IWF-11U24303902022-12-07 11:53:3738.9661-8.911058313711472Clb=4.6m/s t=-60.2C h=24.0% p=213.5hPa 403.020 MHz Type=RS41-SGP ser=U2430390 Radiosonde
CT7ARW-11U24303902022-12-07 11:53:3238.9656-8.915438213311429Clb=6.3m/s t=-60.4C h=23.1% p=215.0hPa 403.020 MHz Type=RS41-SGP ser=U2430390 Radiosonde
CS5LAS-11U24303902022-12-07 11:52:3838.9656-8.915868313111423Clb=5.8m/s 403.02MHz Type=RS41-SGP Aux[] BK=Off RS41Tracker 1.17
CT2IWF-11U24303902022-12-07 11:52:3738.9648-8.924658313011325Clb=5.5m/s t=-59.5C h=23.3% p=218.6hPa 403.020 MHz Type=RS41-SGP ser=U2430390 Radiosonde
CT7AUS-11U24303902022-12-07 11:52:3238.9647-8.925498413311316Clb=5.7m/s t=-59.5C h=23.5% p=218.9hPa 403.020 MHz Type=RS41-SGP ser=U2430390 Radiosonde
CT2IRJU24303902022-12-07 11:52:2338.9647-8.926348413511306Clb=5.5m/s p=219.3hPa t=-59.4C h=23.1% 403.020MHz Type=RS41-SGP rdzTTGOsonde
CT7ABP-10U24303902022-12-07 11:52:1338.9645-8.928478313011282Clb=4.6m/s t=-59.3C h=21.9% p=220.1hPa 403.020 MHz Type=RS41-SGP ser=U2430390 Radiosonde
CT1EDGU24303902022-12-07 11:51:5538.964-8.935318613311210Clb=3.9m/s t=-58.7C h=22.6% p=222.7hPa 403.020 MHz Type=RS41-SGP ser=U2430390 Radiosonde
CT2IRJU24303902022-12-07 11:51:5138.964-8.935318713511210Clb=3.9m/s p=222.7hPa t=-58.7C h=22.6% 403.020MHz Type=RS41-SGP rdzTTGOsonde
CT7AUS-11U24303902022-12-07 11:51:4538.9638-8.938788513511173Clb=4.8m/s t=-58.6C h=21.2% p=224.0hPa 403.020 MHz Type=RS41-SGP ser=U2430390 Radiosonde
CT2IRJU24303902022-12-07 11:51:3138.9635-8.944078613911121Clb=4.8m/s p=225.9hPa t=-58.3C h=22.2% 403.020MHz Type=RS41-SGP rdzTTGOsonde
CT1EDGU24303902022-12-07 11:51:2438.9633-8.947678714311085Clb=5.0m/s t=-58.1C h=20.7% p=227.2hPa 403.020 MHz Type=RS41-SGP ser=U2430390 Radiosonde
CT1ESY-11U24303902022-12-07 11:51:2138.9632-8.949948513911063Clb=4.6m/s t=-58.1C h=21.0% p=227.9hPa 403.020 MHz Type=RS41-SGP ser=U2430390 Radiosonde
CS5LAS-11U24303902022-12-07 11:49:5838.9604-8.982998211510670Clb=4.8m/s 403.02MHz Type=RS41-SGP Aux[] BK=Off RS41Tracker 1.17
CS5LAS-11U24303902022-12-07 11:49:3838.9596-8.990388411310577Clb=5.1m/s 403.02MHz Type=RS41-SGP Aux[] BK=Off RS41Tracker 1.17
CS5LAS-11U24303902022-12-07 11:48:5838.9581-9.004178310210382Clb=6.3m/s 403.02MHz Type=RS41-SGP Aux[] BK=Off RS41Tracker 1.17
CS5LAS-11U24303902022-12-07 11:48:3838.9578-9.01038869610272Clb=6.0m/s 403.02MHz Type=RS41-SGP Aux[] BK=Off RS41Tracker 1.17
CS5LAS-11U24303902022-12-07 11:48:1838.9574-9.01606819110168Clb=6.2m/s 403.02MHz Type=RS41-SGP Aux[] BK=Off RS41Tracker 1.17
CS5LAS-11U24303902022-12-07 11:47:5838.957-9.02173849110059Clb=4.8m/s 403.02MHz Type=RS41-SGP Aux[] BK=Off RS41Tracker 1.17
CS5LAS-11U24303902022-12-07 11:46:5838.9553-9.0372787879747Clb=5.1m/s 403.02MHz Type=RS41-SGP Aux[] BK=Off RS41Tracker 1.17
CS5LAS-11U24303902022-12-07 11:46:3838.9546-9.0416774749643Clb=7.1m/s 403.02MHz Type=RS41-SGP Aux[] BK=Off RS41Tracker 1.17
CS5LAS-11U24303902022-12-07 11:46:1838.9537-9.0456961549529Clb=7.1m/s 403.02MHz Type=RS41-SGP Aux[] BK=Off RS41Tracker 1.17
CS5LAS-11U24303902022-12-07 11:44:5838.9489-9.0585666549132Clb=4.1m/s 403.02MHz Type=RS41-SGP Aux[] BK=Off RS41Tracker 1.17
CS5LAS-11U24303902022-12-07 11:42:5838.9434-9.0759969528582Clb=5.1m/s 403.02MHz Type=RS41-SGP Aux[] BK=Off RS41Tracker 1.17
CS5LAS-11U24303902022-12-07 11:41:5838.9401-9.0841342418286Clb=5.7m/s 403.02MHz Type=RS41-SGP Aux[] BK=Off RS41Tracker 1.17
CS5LAS-11U24303902022-12-07 11:40:3838.9313-9.0934832467889Clb=5.3m/s 403.02MHz Type=RS41-SGP Aux[] BK=Off RS41Tracker 1.17
CS5LAS-11U24303902022-12-07 11:40:1838.9287-9.0952341617782Clb=5.3m/s 403.02MHz Type=RS41-SGP Aux[] BK=Off RS41Tracker 1.17
CS5LAS-11U24303902022-12-07 11:39:5838.9268-9.0971234507672Clb=6.1m/s 403.02MHz Type=RS41-SGP Aux[] BK=Off RS41Tracker 1.17
CS5LAS-11U24303902022-12-07 11:38:1838.916-9.1060828657155Clb=5.1m/s 403.02MHz Type=RS41-SGP Aux[] BK=Off RS41Tracker 1.17
CT2IRJU24303902022-12-07 11:38:0738.9072-9.1134139656774Clb=6.7m/s p=430.3hPa t=-25.6C h=72.9% 403.020MHz Type=RS41-SGP rdzTTGOsonde
CT1ESY-11U24303902022-12-07 11:37:4538.9059-9.1147142676718Clb=4.2m/s t=-25.3C h=71.6% p=433.8hPa 403.020 MHz Type=RS41-SGP ser=U2430390 Radiosonde
CT7ABP-10U24303902022-12-07 11:37:4238.9057-9.11539676711Clb=3.8m/s t=-25.3C h=72.5% p=434.1hPa 403.020 MHz Type=RS41-SGP ser=U2430390 Radiosonde
CT2IWF-11U24303902022-12-07 11:37:3038.9051-9.1156842416680Clb=5.6m/s t=-25.2C h=69.3% p=436.0hPa 403.020 MHz Type=RS41-SGP ser=U2430390 Radiosonde
CT2GAI-13U24303902022-12-07 11:37:2838.9051-9.1156842416680Clb=5.6m/s t=-25.2C h=69.3% p=436.0hPa 403.021 MHz Type=RS41-SGP ser=U2430390 Radiosonde
CT7AUS-11U24303902022-12-07 11:37:2238.9048-9.1159840546666Clb=4.3m/s t=-25.0C h=70.6% p=436.9hPa 403.020 MHz Type=RS41-SGP ser=U2430390 Radiosonde
CT1ESY-11U24303902022-12-07 11:36:4238.902-9.1180135636549Clb=5.4m/s t=-24.1C h=63.8% p=444.1hPa 403.020 MHz Type=RS41-SGP ser=U2430390 Radiosonde
CT2IRJU24303902022-12-07 11:36:3138.9015-9.1186241506521Clb=5.1m/s p=445.8hPa t=-23.9C h=66.1% 403.020MHz Type=RS41-SGP rdzTTGOsonde
CT2IWF-11U24303902022-12-07 11:36:3038.9013-9.1188334546510Clb=6.6m/s t=-23.8C h=65.8% p=446.4hPa 403.020 MHz Type=RS41-SGP ser=U2430390 Radiosonde
CT7ARW-11U24303902022-12-07 11:36:2438.901-9.1191237506493Clb=5.6m/s t=-23.6C h=66.8% p=447.4hPa 403.020 MHz Type=RS41-SGP ser=U2430390 Radiosonde
CT7AUS-11U24303902022-12-07 11:36:2338.901-9.1191237506493Clb=5.6m/s t=-23.6C h=66.8% p=447.4hPa 403.020 MHz Type=RS41-SGP ser=U2430390 Radiosonde
CS5LAS-11U24303902022-12-07 11:35:5838.8993-9.120732696419Clb=6.3m/s 403.02MHz Type=RS41-SGP Aux[] BK=Off RS41Tracker 1.17
CT2IRJU24303902022-12-07 11:35:5538.8991-9.1208236706413Clb=5.0m/s p=452.4hPa t=-22.5C h=84.4% 403.020MHz Type=RS41-SGP rdzTTGOsonde
CT7ABP-10U24303902022-12-07 11:35:5138.8984-9.1214840656389Clb=7.4m/s t=-22.3C h=82.6% p=453.9hPa 403.020 MHz Type=RS41-SGP ser=U2430390 Radiosonde
CT1ESY-11U24303902022-12-07 11:35:5038.8983-9.1216141576382Clb=6.8m/s t=-22.3C h=81.8% p=454.3hPa 403.020 MHz Type=RS41-SGP ser=U2430390 Radiosonde
CT2GAI-13U24303902022-12-07 11:35:4538.8979-9.1220223376355Clb=5.8m/s t=-22.1C h=79.7% p=455.9hPa 403.021 MHz Type=RS41-SGP ser=U2430390 Radiosonde
CT7AUS-11U24303902022-12-07 11:35:4138.8974-9.122217526332Clb=7.6m/s t=-21.9C h=83.6% p=457.3hPa 403.020 MHz Type=RS41-SGP ser=U2430390 Radiosonde
CT2IRJU24303902022-12-07 11:35:3438.8967-9.1227844486294Clb=7.4m/s p=459.6hPa t=-21.6C h=84.1% 403.020MHz Type=RS41-SGP rdzTTGOsonde
CT1EDGU24303902022-12-07 11:35:2138.8948-9.1239419506211Clb=5.5m/s t=-21.1C h=88.2% p=465.0hPa 403.021 MHz Type=RS41-SGP ser=U2430390 Radiosonde
CT1ESY-11U24303902022-12-07 11:35:1838.8946-9.1240520436202Clb=4.2m/s t=-21.0C h=88.8% p=465.6hPa 403.020 MHz Type=RS41-SGP ser=U2430390 Radiosonde
CT2IRJU24303902022-12-07 11:35:1438.8943-9.1241919576185Clb=5.0m/s p=466.6hPa t=-21.0C h=89.2% 403.020MHz Type=RS41-SGP rdzTTGOsonde
CT7AUS-11U24303902022-12-07 11:35:1238.8936-9.1246736566162Clb=4.3m/s t=-20.8C h=92.3% p=468.1hPa 403.020 MHz Type=RS41-SGP ser=U2430390 Radiosonde
CT7ARW-11U24303902022-12-07 11:35:0938.8934-9.1248629446152Clb=5.2m/s t=-20.8C h=91.7% p=468.6hPa 403.020 MHz Type=RS41-SGP ser=U2430390 Radiosonde
CT2IRJU24303902022-12-07 11:34:5338.8916-9.1259529696088Clb=2.8m/s p=472.8hPa t=-20.2C h=94.7% 403.020MHz Type=RS41-SGP rdzTTGOsonde
CT7ABP-10U24303902022-12-07 11:34:5038.8909-9.1262614576061Clb=4.2m/s t=-19.7C h=94.5% p=474.6hPa 403.020 MHz Type=RS41-SGP ser=U2430390 Radiosonde
CT1EDGU24303902022-12-07 11:34:4938.8909-9.1262614576061Clb=4.2m/s t=-19.7C h=94.5% p=474.6hPa 403.021 MHz Type=RS41-SGP ser=U2430390 Radiosonde
CT1ESY-11U24303902022-12-07 11:34:4638.8904-9.1264315696048Clb=8.1m/s t=-19.5C h=92.6% p=475.3hPa 403.020 MHz Type=RS41-SGP ser=U2430390 Radiosonde
CT2GAI-13U24303902022-12-07 11:34:4438.8901-9.1265618726034Clb=6.2m/s t=-19.4C h=92.8% p=476.4hPa 403.021 MHz Type=RS41-SGP ser=U2430390 Radiosonde
CT2IWF-11U24303902022-12-07 11:34:4338.8897-9.1267320706026Clb=4.3m/s t=-19.4C h=92.9% p=476.9hPa 403.020 MHz Type=RS41-SGP ser=U2430390 Radiosonde
CT2IRJU24303902022-12-07 11:34:4238.8887-9.1271629375981Clb=5.7m/s p=479.6hPa t=-19.1C h=94.2% 403.020MHz Type=RS41-SGP rdzTTGOsonde
CS5LAS-11U24303902022-12-07 11:34:1838.8868-9.1282636435888Clb=6.6m/s 403.02MHz Type=RS41-SGP Aux[] BK=Off RS41Tracker 1.17
CS5LAS-11U24303902022-12-07 11:33:5838.8845-9.12886505774Clb=5.7m/s 403.02MHz Type=RS41-SGP Aux[] BK=Off RS41Tracker 1.17
CS5LAS-11U24303902022-12-07 11:33:3838.8825-9.1299335465659Clb=5.4m/s 403.02MHz Type=RS41-SGP Aux[] BK=Off RS41Tracker 1.17
CS5LAS-11U24303902022-12-07 11:33:1838.8806-9.1315525575553Clb=4.4m/s 403.02MHz Type=RS41-SGP Aux[] BK=Off RS41Tracker 1.17
CS5LAS-11U24303902022-12-07 11:32:5838.8785-9.132618415453Clb=5.7m/s 403.02MHz Type=RS41-SGP Aux[] BK=Off RS41Tracker 1.17
CS5LAS-11U24303902022-12-07 11:32:3838.8761-9.133265355358Clb=4.7m/s 403.02MHz Type=RS41-SGP Aux[] BK=Off RS41Tracker 1.17
CS5LAS-11U24303902022-12-07 11:32:1838.8742-9.1340914485252Clb=4.1m/s 403.02MHz Type=RS41-SGP Aux[] BK=Off RS41Tracker 1.17
CT2IRJU24303902022-12-07 11:32:1338.8733-9.134417505222Clb=4.5m/s p=530.8hPa t=-14.0C h=95.7% 403.020MHz Type=RS41-SGP rdzTTGOsonde
CT2IWF-11U24303902022-12-07 11:32:1038.873-9.1345821545209Clb=5.8m/s t=-13.9C h=94.2% p=531.7hPa 403.020 MHz Type=RS41-SGP ser=U2430390 Radiosonde
CT1ESY-11U24303902022-12-07 11:32:0838.8727-9.134719545198Clb=4.9m/s t=-13.8C h=93.1% p=532.5hPa 403.020 MHz Type=RS41-SGP ser=U2430390 Radiosonde
CT7AUS-11U24303902022-12-07 11:32:0738.8726-9.1347619565193Clb=5.3m/s t=-13.8C h=92.8% p=532.9hPa 403.020 MHz Type=RS41-SGP ser=U2430390 Radiosonde
CS5LAS-11U24303902022-12-07 11:31:5838.8718-9.1352322505157Clb=5.7m/s 403.02MHz Type=RS41-SGP Aux[] BK=Off RS41Tracker 1.17
CT7ARW-11U24303902022-12-07 11:31:5638.8717-9.1352918485152Clb=4.4m/s t=-13.4C h=90.9% p=535.8hPa 403.020 MHz Type=RS41-SGP ser=U2430390 Radiosonde
CT2IRJU24303902022-12-07 11:31:4838.8711-9.1355326415117Clb=5.2m/s p=538.1hPa t=-13.2C h=89.5% 403.020MHz Type=RS41-SGP rdzTTGOsonde
CT7ABP-10U24303902022-12-07 11:31:4738.8709-9.1356625505108Clb=5.8m/s t=-13.1C h=89.0% p=538.7hPa 403.020 MHz Type=RS41-SGP ser=U2430390 Radiosonde
CT1EDGU24303902022-12-07 11:31:4438.8704-9.1359637415083Clb=6.5m/s t=-13.0C h=89.6% p=540.5hPa 403.021 MHz Type=RS41-SGP ser=U2430390 Radiosonde
CT2GAI-13U24303902022-12-07 11:31:4138.8702-9.1361312335069Clb=4.8m/s t=-12.9C h=90.7% p=541.5hPa 403.021 MHz Type=RS41-SGP ser=U2430390 Radiosonde
CS5LAS-11U24303902022-12-07 11:31:3838.8699-9.136154415051Clb=6.9m/s 403.02MHz Type=RS41-SGP Aux[] BK=Off RS41Tracker 1.17
CT2IWF-11U24303902022-12-07 11:31:3638.8698-9.136165465045Clb=5.0m/s t=-12.8C h=92.2% p=543.2hPa 403.020 MHz Type=RS41-SGP ser=U2430390 Radiosonde
CT1ESY-11U24303902022-12-07 11:31:3438.8695-9.1362411525033Clb=4.6m/s t=-12.7C h=91.9% p=544.2hPa 403.020 MHz Type=RS41-SGP ser=U2430390 Radiosonde
CT7AUS-11U24303902022-12-07 11:31:3338.8695-9.1362411525033Clb=4.6m/s t=-12.7C h=91.9% p=544.2hPa 403.020 MHz Type=RS41-SGP ser=U2430390 Radiosonde
CT2IRJU24303902022-12-07 11:31:2738.8689-9.1364726395009Clb=6.2m/s p=545.7hPa t=-12.5C h=92.1% 403.020MHz Type=RS41-SGP rdzTTGOsonde
CT7ARW-11U24303902022-12-07 11:31:2538.8686-9.136726444988Clb=5.7m/s t=-12.3C h=92.5% p=547.4hPa 403.020 MHz Type=RS41-SGP ser=U2430390 Radiosonde
CS5LAS-11U24303902022-12-07 11:31:1838.8678-9.137022334960Clb=5.6m/s 403.02MHz Type=RS41-SGP Aux[] BK=Off RS41Tracker 1.17
CT1EDGU24303902022-12-07 11:31:1238.8675-9.1370810174930Clb=4.8m/s t=-12.0C h=93.2% p=551.5hPa 403.021 MHz Type=RS41-SGP ser=U2430390 Radiosonde
CT2IRJU24303902022-12-07 11:31:0738.8673-9.137072414911Clb=5.4m/s p=553.0hPa t=-11.9C h=93.6% 403.020MHz Type=RS41-SGP rdzTTGOsonde
CT2IWF-11U24303902022-12-07 11:31:0538.867-9.1371218414891Clb=5.5m/s t=-11.7C h=93.7% p=554.3hPa 403.020 MHz Type=RS41-SGP ser=U2430390 Radiosonde
CT7AUS-11U24303902022-12-07 11:31:0238.8666-9.1372719304867Clb=3.9m/s t=-11.5C h=92.7% p=556.0hPa 403.020 MHz Type=RS41-SGP ser=U2430390 Radiosonde
CS5LAS-11U24303902022-12-07 11:30:5838.8663-9.1374934354845Clb=3.4m/s 403.02MHz Type=RS41-SGP Aux[] BK=Off RS41Tracker 1.17
CT7ARW-11U24303902022-12-07 11:30:5238.8659-9.13762359314819Clb=7.0m/s t=-11.2C h=90.6% p=559.5hPa 403.020 MHz Type=RS41-SGP ser=U2430390 Radiosonde
CT2IRJU24303902022-12-07 11:30:4638.8655-9.137657434794Clb=4.6m/s p=561.4hPa t=-11.0C h=91.0% 403.020MHz Type=RS41-SGP rdzTTGOsonde
CT1EDGU24303902022-12-07 11:30:4138.865-9.1378629354759Clb=5.4m/s t=-10.7C h=89.2% p=564.0hPa 403.021 MHz Type=RS41-SGP ser=U2430390 Radiosonde
CT2GAI-13U24303902022-12-07 11:30:4038.8648-9.1379511414749Clb=5.1m/s t=-10.6C h=89.0% p=564.6hPa 403.021 MHz Type=RS41-SGP ser=U2430390 Radiosonde
CS5LAS-11U24303902022-12-07 11:30:3838.8646-9.1388484739Clb=7.4m/s 403.02MHz Type=RS41-SGP Aux[] BK=Off RS41Tracker 1.17
CT2IWF-11U24303902022-12-07 11:30:3438.8643-9.138118434721Clb=4.3m/s t=-10.4C h=88.8% p=566.8hPa 403.020 MHz Type=RS41-SGP ser=U2430390 Radiosonde
CT7AUS-11U24303902022-12-07 11:30:3138.8639-9.13816345264700Clb=6.0m/s t=-10.3C h=86.4% p=568.2hPa 403.020 MHz Type=RS41-SGP ser=U2430390 Radiosonde
CT1ESY-11U24303902022-12-07 11:30:3038.8639-9.13813340304695Clb=5.5m/s t=-10.2C h=86.3% p=568.6hPa 403.020 MHz Type=RS41-SGP ser=U2430390 Radiosonde
CT2IRJU24303902022-12-07 11:30:2538.8636-9.13806357374682Clb=5.0m/s p=569.4hPa t=-10.1C h=87.1% 403.020MHz Type=RS41-SGP rdzTTGOsonde
CT7ARW-11U24303902022-12-07 11:30:2038.8632-9.138217264649Clb=6.7m/s t=-9.9C h=86.4% p=572.0hPa 403.020 MHz Type=RS41-SGP ser=U2430390 Radiosonde
CS5LAS-11U24303902022-12-07 11:30:1838.8629-9.138212444634Clb=6.2m/s 403.02MHz Type=RS41-SGP Aux[] BK=Off RS41Tracker 1.17
CT1EDGU24303902022-12-07 11:30:1038.8621-9.138534304594Clb=4.4m/s t=-9.5C h=86.7% p=576.0hPa 403.021 MHz Type=RS41-SGP ser=U2430390 Radiosonde
CT2IRJU24303902022-12-07 11:30:0538.8619-9.13853360434577Clb=4.3m/s p=577.3hPa t=-9.4C h=87.0% 403.020MHz Type=RS41-SGP rdzTTGOsonde
CT2IWF-11U24303902022-12-07 11:30:0338.8615-9.1385356434561Clb=5.0m/s t=-9.2C h=86.2% p=578.5hPa 403.020 MHz Type=RS41-SGP ser=U2430390 Radiosonde
CT7AUS-11U24303902022-12-07 11:30:0038.8612-9.138631284542Clb=4.2m/s t=-9.1C h=85.7% p=579.9hPa 403.020 MHz Type=RS41-SGP ser=U2430390 Radiosonde
CS5LAS-11U24303902022-12-07 11:29:5838.8611-9.1386825204530Clb=7.3m/s 403.02MHz Type=RS41-SGP Aux[] BK=Off RS41Tracker 1.17
CT7ARW-11U24303902022-12-07 11:29:5438.8603-9.1388321414484Clb=5.1m/s t=-8.9C h=88.8% p=584.2hPa 403.020 MHz Type=RS41-SGP ser=U2430390 Radiosonde
CT2GAI-13U24303902022-12-07 11:29:5338.8594-9.1392428224429Clb=6.6m/s t=-8.7C h=93.9% p=588.3hPa 403.021 MHz Type=RS41-SGP ser=U2430390 Radiosonde
CS5LAS-11U24303902022-12-07 11:29:3838.8593-9.1392614224423Clb=5.7m/s 403.02MHz Type=RS41-SGP Aux[] BK=Off RS41Tracker 1.17
CS5LAS-11U24303902022-12-07 11:29:1838.8574-9.1394221244314Clb=5.7m/s 403.02MHz Type=RS41-SGP Aux[] BK=Off RS41Tracker 1.17
CS5LAS-11U24303902022-12-07 11:28:5838.8557-9.139787484211Clb=5.5m/s 403.02MHz Type=RS41-SGP Aux[] BK=Off RS41Tracker 1.17
CT2IRJU24303902022-12-07 11:28:5738.8544-9.140116314133Clb=5.4m/s p=611.1hPa t=-6.5C h=86.9% 403.020MHz Type=RS41-SGP rdzTTGOsonde
CT2GAI-13U24303902022-12-07 11:28:5238.8539-9.140128434109Clb=5.4m/s t=-6.5C h=89.1% p=613.2hPa 403.021 MHz Type=RS41-SGP ser=U2430390 Radiosonde
CS5LAS-11U24303902022-12-07 11:28:3838.8539-9.140128444109Clb=5.4m/s 403.02MHz Type=RS41-SGP Aux[] BK=Off RS41Tracker 1.17
CT7AUS-11U24303902022-12-07 11:28:3538.8527-9.140273374049Clb=4.2m/s t=-6.0C h=88.0% p=617.9hPa 403.020 MHz Type=RS41-SGP ser=U2430390 Radiosonde
CT2IRJU24303902022-12-07 11:28:2638.8523-9.1403814484024Clb=6.7m/s p=619.9hPa t=-6.0C h=89.5% 403.020MHz Type=RS41-SGP rdzTTGOsonde
CS5LAS-11U24303902022-12-07 11:28:1838.8518-9.14038350444002Clb=5.2m/s 403.02MHz Type=RS41-SGP Aux[] BK=Off RS41Tracker 1.17
CT1EDGU24303902022-12-07 11:28:0638.8505-9.14056355393949Clb=4.7m/s t=-5.6C h=89.4% p=625.8hPa 403.021 MHz Type=RS41-SGP ser=U2430390 Radiosonde
CT2IRJU24303902022-12-07 11:28:0038.8502-9.1406122303928Clb=4.8m/s p=627.5hPa t=-5.4C h=88.4% 403.020MHz Type=RS41-SGP rdzTTGOsonde
CT2IWF-11U24303902022-12-07 11:27:5938.85-9.1406822353921Clb=3.2m/s t=-5.3C h=88.4% p=628.0hPa 403.020 MHz Type=RS41-SGP ser=U2430390 Radiosonde
CS5LAS-11U24303902022-12-07 11:27:5838.8498-9.1407821503913Clb=4.4m/s 403.02MHz Type=RS41-SGP Aux[] BK=Off RS41Tracker 1.17
CT7AUS-11U24303902022-12-07 11:27:5538.8496-9.1408812573903Clb=6.5m/s t=-5.2C h=87.4% p=629.4hPa 403.020 MHz Type=RS41-SGP ser=U2430390 Radiosonde
CT1ESY-11U24303902022-12-07 11:27:4938.8488-9.140972313875Clb=5.4m/s t=-5.2C h=90.3% p=631.6hPa 403.020 MHz Type=RS41-SGP ser=U2430390 Radiosonde
CT7ABP-10U24303902022-12-07 11:27:4338.8483-9.141114413841Clb=5.7m/s t=-5.3C h=95.7% p=634.4hPa 403.020 MHz Type=RS41-SGP ser=U2430390 Radiosonde
CT2IRJU24303902022-12-07 11:27:4138.8481-9.14111360463832Clb=4.3m/s p=635.2hPa t=-5.2C h=95.4% 403.020MHz Type=RS41-SGP rdzTTGOsonde
CT7ARW-11U24303902022-12-07 11:27:4038.8479-9.141125463821Clb=7.2m/s t=-5.2C h=95.0% p=636.0hPa 403.020 MHz Type=RS41-SGP ser=U2430390 Radiosonde
CS5LAS-11U24303902022-12-07 11:27:3838.8476-9.1411610373811Clb=5.9m/s 403.02MHz Type=RS41-SGP Aux[] BK=Off RS41Tracker 1.17
CT2GAI-13U24303902022-12-07 11:27:3638.8476-9.141170313805Clb=5.8m/s t=-5.2C h=95.5% p=637.4hPa 403.021 MHz Type=RS41-SGP ser=U2430390 Radiosonde
CT1EDGU24303902022-12-07 11:27:3438.8469-9.141114503773Clb=5.3m/s t=-5.0C h=95.6% p=639.8hPa 403.021 MHz Type=RS41-SGP ser=U2430390 Radiosonde
CT2IWF-11U24303902022-12-07 11:27:2838.8466-9.141165333759Clb=5.4m/s t=-4.8C h=94.5% p=641.0hPa 403.020 MHz Type=RS41-SGP ser=U2430390 Radiosonde
CT7AUS-11U24303902022-12-07 11:27:2438.8463-9.14115355433745Clb=4.6m/s t=-4.7C h=94.2% p=642.1hPa 403.020 MHz Type=RS41-SGP ser=U2430390 Radiosonde
CT2IRJU24303902022-12-07 11:27:1938.8458-9.1412113523723Clb=5.9m/s p=643.9hPa t=-4.5C h=92.8% 403.020MHz Type=RS41-SGP rdzTTGOsonde
CS5LAS-11U24303902022-12-07 11:27:1838.8454-9.14125356483709Clb=6.1m/s 403.02MHz Type=RS41-SGP Aux[] BK=Off RS41Tracker 1.17
CT1ESY-11U24303902022-12-07 11:27:1738.8454-9.14125355463709Clb=6.1m/s t=-4.5C h=93.7% p=645.1hPa 403.020 MHz Type=RS41-SGP ser=U2430390 Radiosonde
CT7ARW-11U24303902022-12-07 11:27:0838.8444-9.14129348413652Clb=5.1m/s t=-4.2C h=96.7% p=649.6hPa 403.020 MHz Type=RS41-SGP ser=U2430390 Radiosonde
CT1EDGU24303902022-12-07 11:27:0338.8439-9.141224593630Clb=6.7m/s t=-4.1C h=96.7% p=651.4hPa 403.021 MHz Type=RS41-SGP ser=U2430390 Radiosonde
CT2IRJU24303902022-12-07 11:26:5938.8435-9.1413216543613Clb=4.9m/s p=652.8hPa t=-3.9C h=96.7% 403.020MHz Type=RS41-SGP rdzTTGOsonde
CS5LAS-11U24303902022-12-07 11:26:5838.8431-9.141424443598Clb=4.4m/s 403.02MHz Type=RS41-SGP Aux[] BK=Off RS41Tracker 1.17
CT2IWF-11U24303902022-12-07 11:26:5738.843-9.14142359413594Clb=4.0m/s t=-3.8C h=97.5% p=654.5hPa 403.020 MHz Type=RS41-SGP ser=U2430390 Radiosonde
CT7AUS-11U24303902022-12-07 11:26:5438.8427-9.1414514353577Clb=6.5m/s t=-3.8C h=96.9% p=655.7hPa 403.020 MHz Type=RS41-SGP ser=U2430390 Radiosonde
CT1ESY-11U24303902022-12-07 11:26:4538.8418-9.14149356523535Clb=6.9m/s t=-3.5C h=97.3% p=659.2hPa 403.020 MHz Type=RS41-SGP ser=U2430390 Radiosonde
CT7ABP-10U24303902022-12-07 11:26:4238.8415-9.14143352333519Clb=5.4m/s t=-3.5C h=97.7% p=660.7hPa 403.020 MHz Type=RS41-SGP ser=U2430390 Radiosonde
CT2IRJU24303902022-12-07 11:26:3938.8412-9.1414512393502Clb=4.5m/s p=662.1hPa t=-3.3C h=98.3% 403.020MHz Type=RS41-SGP rdzTTGOsonde
CS5LAS-11U24303902022-12-07 11:26:3838.841-9.141496443491Clb=6.6m/s 403.02MHz Type=RS41-SGP Aux[] BK=Off RS41Tracker 1.17
CT7ARW-11U24303902022-12-07 11:26:3638.8408-9.1415357413480Clb=4.9m/s t=-3.2C h=97.8% p=664.0hPa 403.020 MHz Type=RS41-SGP ser=U2430390 Radiosonde
CT2GAI-13U24303902022-12-07 11:26:3538.8408-9.1415357413480Clb=4.9m/s t=-3.2C h=97.8% p=664.0hPa 403.021 MHz Type=RS41-SGP ser=U2430390 Radiosonde
CT1EDGU24303902022-12-07 11:26:3238.8405-9.1415216333463Clb=4.5m/s t=-3.1C h=97.3% p=665.3hPa 403.021 MHz Type=RS41-SGP ser=U2430390 Radiosonde
CT2IWF-11U24303902022-12-07 11:26:2638.8398-9.141698413424Clb=8.2m/s t=-2.9C h=97.6% p=668.6hPa 403.020 MHz Type=RS41-SGP ser=U2430390 Radiosonde
CT7AUS-11U24303902022-12-07 11:26:2238.8395-9.141733483404Clb=5.6m/s t=-2.8C h=98.1% p=670.4hPa 403.020 MHz Type=RS41-SGP ser=U2430390 Radiosonde
CT2IRJU24303902022-12-07 11:26:1738.8391-9.14183393380Clb=5.4m/s p=672.5hPa t=-2.6C h=97.8% 403.020MHz Type=RS41-SGP rdzTTGOsonde
CT1ESY-11U24303902022-12-07 11:26:1538.8385-9.1418616503353Clb=5.5m/s t=-2.5C h=98.0% p=674.6hPa 403.020 MHz Type=RS41-SGP ser=U2430390 Radiosonde
CT1EDGU24303902022-12-07 11:26:0138.8372-9.142180313286Clb=5.4m/s t=-2.2C h=98.5% p=680.4hPa 403.021 MHz Type=RS41-SGP ser=U2430390 Radiosonde
CS5LAS-11U24303902022-12-07 11:25:5838.8368-9.142151483266Clb=6.9m/s 403.02MHz Type=RS41-SGP Aux[] BK=Off RS41Tracker 1.17
CT2IRJU24303902022-12-07 11:25:5638.8368-9.142152483266Clb=6.9m/s p=682.2hPa t=-2.0C h=98.9% 403.020MHz Type=RS41-SGP rdzTTGOsonde
CT2IWF-11U24303902022-12-07 11:25:5538.8364-9.1422312563249Clb=7.3m/s t=-2.0C h=98.9% p=683.6hPa 403.020 MHz Type=RS41-SGP ser=U2430390 Radiosonde
CT7AUS-11U24303902022-12-07 11:25:5138.836-9.142280543230Clb=4.2m/s t=-1.9C h=99.6% p=685.2hPa 403.020 MHz Type=RS41-SGP ser=U2430390 Radiosonde
CT1ESY-11U24303902022-12-07 11:25:4138.8349-9.14229352543175Clb=5.1m/s t=-1.6C h=98.3% p=690.1hPa 403.020 MHz Type=RS41-SGP ser=U2430390 Radiosonde
CS5LAS-11U24303902022-12-07 11:25:3838.8344-9.142254483154Clb=5.6m/s 403.02MHz Type=RS41-SGP Aux[] BK=Off RS41Tracker 1.17
CT2IRJU24303902022-12-07 11:25:3538.8343-9.1422712463149Clb=5.4m/s p=692.3hPa t=-1.5C h=99.1% 403.020MHz Type=RS41-SGP rdzTTGOsonde
CT2GAI-13U24303902022-12-07 11:25:3438.834-9.1423517463138Clb=6.0m/s t=-1.5C h=99.2% p=693.3hPa 403.021 MHz Type=RS41-SGP ser=U2430390 Radiosonde
CT7ARW-11U24303902022-12-07 11:25:3138.8337-9.142433463121Clb=4.9m/s t=-1.4C h=99.4% p=694.8hPa 403.020 MHz Type=RS41-SGP ser=U2430390 Radiosonde
CT1EDGU24303902022-12-07 11:25:3038.8332-9.142518333089Clb=7.5m/s t=-1.2C h=98.6% p=697.5hPa 403.021 MHz Type=RS41-SGP ser=U2430390 Radiosonde
CT2IWF-11U24303902022-12-07 11:25:2438.8329-9.1426111523074Clb=6.1m/s t=-1.1C h=98.5% p=698.9hPa 403.020 MHz Type=RS41-SGP ser=U2430390 Radiosonde
CS5LAS-11U24303902022-12-07 11:25:1838.8322-9.142694393042Clb=4.2m/s 403.02MHz Type=RS41-SGP Aux[] BK=Off RS41Tracker 1.17
CT7ARW-11U24303902022-12-07 11:25:1438.8302-9.14273357502946Clb=7.7m/s t=-0.5C h=99.1% p=710.1hPa 403.020 MHz Type=RS41-SGP ser=U2430390 Radiosonde
CT1EDGU24303902022-12-07 11:25:1338.8302-9.14273357502946Clb=7.7m/s t=-0.5C h=99.1% p=710.1hPa 403.021 MHz Type=RS41-SGP ser=U2430390 Radiosonde
CS5LAS-11U24303902022-12-07 11:24:5838.83-9.1427511462934Clb=5.1m/s 403.02MHz Type=RS41-SGP Aux[] BK=Off RS41Tracker 1.17
CT7ABP-10U24303902022-12-07 11:24:4938.8281-9.143134542841Clb=6.2m/s t=0.1C h=99.2% p=719.5hPa 403.020 MHz Type=RS41-SGP ser=U2430390 Radiosonde
CT1ESY-11U24303902022-12-07 11:24:4538.8277-9.14308346482824Clb=5.4m/s t=0.2C h=99.0% p=721.1hPa 403.020 MHz Type=RS41-SGP ser=U2430390 Radiosonde
CS5LAS-11U24303902022-12-07 11:24:3838.8277-9.14308346502824Clb=5.4m/s 403.02MHz Type=RS41-SGP Aux[] BK=Off RS41Tracker 1.17
CT7ARW-11U24303902022-12-07 11:24:3338.8267-9.14315312770Clb=5.1m/s t=0.6C h=99.0% p=725.9hPa 403.020 MHz Type=RS41-SGP ser=U2430390 Radiosonde
CT2IWF-11U24303902022-12-07 11:24:2638.826-9.14324592739Clb=5.3m/s t=0.7C h=99.0% p=728.8hPa 403.020 MHz Type=RS41-SGP ser=U2430390 Radiosonde
CT7AUS-11U24303902022-12-07 11:24:2038.8256-9.143279542724Clb=5.1m/s t=0.8C h=99.0% p=730.1hPa 403.020 MHz Type=RS41-SGP ser=U2430390 Radiosonde
CS5LAS-11U24303902022-12-07 11:24:1838.8254-9.143311522718Clb=5.7m/s 403.02MHz Type=RS41-SGP Aux[] BK=Off RS41Tracker 1.17
CT2IRJU24303902022-12-07 11:24:1538.8251-9.14334356412701Clb=5.2m/s p=731.9hPa t=1.0C h=98.9% 403.020MHz Type=RS41-SGP rdzTTGOsonde
CT1ESY-11U24303902022-12-07 11:24:0538.8241-9.143266432650Clb=6.9m/s t=1.2C h=98.6% p=736.7hPa 403.020 MHz Type=RS41-SGP ser=U2430390 Radiosonde
CS5LAS-11U24303902022-12-07 11:23:5838.8231-9.1433114502609Clb=5.1m/s 403.02MHz Type=RS41-SGP Aux[] BK=Off RS41Tracker 1.17
CT1EDGU24303902022-12-07 11:23:5738.823-9.1433513432604Clb=5.4m/s t=1.5C h=98.6% p=-1.0hPa 403.021 MHz Type=RS41-SGP ser=U2430390 Radiosonde
CT7ARW-11U24303902022-12-07 11:23:5538.8228-9.14338359392594Clb=5.5m/s t=1.5C h=98.7% p=741.9hPa 403.020 MHz Type=RS41-SGP ser=U2430390 Radiosonde
CT2IRJU24303902022-12-07 11:23:5238.8227-9.14337355432589Clb=5.7m/s p=742.5hPa t=1.6C h=99.0% 403.020MHz Type=RS41-SGP rdzTTGOsonde
CT2IWF-11U24303902022-12-07 11:23:5138.8223-9.14332358592573Clb=5.4m/s t=1.7C h=98.8% p=743.8hPa 403.020 MHz Type=RS41-SGP ser=U2430390 Radiosonde
CT7AUS-11U24303902022-12-07 11:23:4738.8218-9.143369562557Clb=5.1m/s t=1.7C h=99.1% p=745.2hPa 403.020 MHz Type=RS41-SGP ser=U2430390 Radiosonde
CT7ABP-10U24303902022-12-07 11:23:3938.8209-9.14333346432513Clb=4.3m/s t=2.0C h=98.5% p=749.2hPa 403.020 MHz Type=RS41-SGP ser=U2430390 Radiosonde
CS5LAS-11U24303902022-12-07 11:23:3838.8208-9.1433346442509Clb=4.1m/s 403.02MHz Type=RS41-SGP Aux[] BK=Off RS41Tracker 1.17
CT1ESY-11U24303902022-12-07 11:23:3338.8203-9.143278462488Clb=4.8m/s t=2.1C h=98.8% p=751.6hPa 403.020 MHz Type=RS41-SGP ser=U2430390 Radiosonde
CT2GAI-13U24303902022-12-07 11:23:3238.8202-9.1432910522484Clb=4.7m/s t=2.1C h=98.6% p=752.1hPa 403.021 MHz Type=RS41-SGP ser=U2430390 Radiosonde
CT2IRJU24303902022-12-07 11:23:3138.8202-9.1432911542484Clb=4.7m/s p=752.1hPa t=2.1C h=98.6% 403.020MHz Type=RS41-SGP rdzTTGOsonde
CT7ARW-11U24303902022-12-07 11:23:2338.8192-9.1432810412440Clb=4.8m/s t=2.4C h=98.4% p=756.3hPa 403.020 MHz Type=RS41-SGP ser=U2430390 Radiosonde
CT2IWF-11U24303902022-12-07 11:23:1938.8186-9.143395612420Clb=6.0m/s t=2.5C h=97.9% p=758.0hPa 403.020 MHz Type=RS41-SGP ser=U2430390 Radiosonde
CS5LAS-11U24303902022-12-07 11:23:1838.8183-9.143420612409Clb=4.7m/s 403.02MHz Type=RS41-SGP Aux[] BK=Off RS41Tracker 1.17
CT7AUS-11U24303902022-12-07 11:23:1638.818-9.1434357522398Clb=6.5m/s t=2.7C h=98.1% p=760.1hPa 403.020 MHz Type=RS41-SGP ser=U2430390 Radiosonde
CT2IRJU24303902022-12-07 11:23:1238.8177-9.14338360392384Clb=4.0m/s p=761.6hPa t=2.8C h=98.7% 403.020MHz Type=RS41-SGP rdzTTGOsonde
CT1ESY-11U24303902022-12-07 11:23:0138.8162-9.1433352372323Clb=4.4m/s t=3.0C h=98.5% p=767.2hPa 403.020 MHz Type=RS41-SGP ser=U2430390 Radiosonde
CS5LAS-11U24303902022-12-07 11:22:5838.8159-9.143292482310Clb=5.6m/s 403.02MHz Type=RS41-SGP Aux[] BK=Off RS41Tracker 1.17
CT1EDGU24303902022-12-07 11:22:5538.8155-9.14330462293Clb=7.3m/s t=3.2C h=-1.0% p=-1.0hPa 403.021 MHz Type=RS41-SGP ser=U2430390 Radiosonde
CT7ARW-11U24303902022-12-07 11:22:5138.8152-9.1433310412275Clb=7.4m/s t=3.4C h=97.6% p=771.6hPa 403.020 MHz Type=RS41-SGP ser=U2430390 Radiosonde
CT2IRJU24303902022-12-07 11:22:5038.8152-9.1433211432275Clb=7.4m/s p=771.6hPa t=3.4C h=97.6% 403.020MHz Type=RS41-SGP rdzTTGOsonde
CT2IWF-11U24303902022-12-07 11:22:4838.8149-9.1434412542258Clb=5.3m/s t=3.5C h=97.6% p=773.3hPa 403.020 MHz Type=RS41-SGP ser=U2430390 Radiosonde
CT7ABP-10U24303902022-12-07 11:22:3838.8137-9.143422372211Clb=4.9m/s t=3.7C h=98.7% p=777.9hPa 403.020 MHz Type=RS41-SGP ser=U2430390 Radiosonde
CT2GAI-13U24303902022-12-07 11:22:3138.8127-9.14345349542175Clb=4.3m/s t=3.9C h=98.8% p=781.4hPa 403.021 MHz Type=RS41-SGP ser=U2430390 Radiosonde
CT2IRJU24303902022-12-07 11:22:2938.8126-9.14342348522171Clb=4.0m/s p=781.6hPa t=3.9C h=98.8% 403.020MHz Type=RS41-SGP rdzTTGOsonde
CT1EDGU24303902022-12-07 11:22:2438.8118-9.143387482139Clb=6.2m/s t=-273.0C h=-1.0% p=-1.0hPa 403.021 MHz Type=RS41 ser=U2430390 Radiosonde
CT7ARW-11U24303902022-12-07 11:22:1938.8113-9.143468482116Clb=7.0m/s t=4.3C h=98.1% p=787.0hPa 403.020 MHz Type=RS41-SGP ser=U2430390 Radiosonde
CS5LAS-11U24303902022-12-07 11:22:1838.8111-9.143514562103Clb=5.6m/s 403.02MHz Type=RS41-SGP Aux[] BK=Off RS41Tracker 1.17
CT2IWF-11U24303902022-12-07 11:22:1738.8111-9.14354542103Clb=5.6m/s t=4.4C h=97.3% p=788.2hPa 403.020 MHz Type=RS41-SGP ser=U2430390 Radiosonde
CT7AUS-11U24303902022-12-07 11:22:1438.8105-9.143522542081Clb=6.4m/s t=4.6C h=96.6% p=790.5hPa 403.020 MHz Type=RS41-SGP ser=U2430390 Radiosonde
CT2IRJU24303902022-12-07 11:22:0938.8101-9.14353357482063Clb=6.3m/s p=792.0hPa t=4.7C h=95.7% 403.020MHz Type=RS41-SGP rdzTTGOsonde
CS5LAS-11U24303902022-12-07 11:21:5838.8085-9.143613501993Clb=6.9m/s 403.02MHz Type=RS41-SGP Aux[] BK=Off RS41Tracker 1.17
CT1ESY-11U24303902022-12-07 11:21:5738.8084-9.143625481987Clb=5.3m/s t=5.0C h=98.3% p=799.5hPa 403.020 MHz Type=RS41-SGP ser=U2430390 Radiosonde
CT1EDGU24303902022-12-07 11:21:5238.808-9.143738481962Clb=6.2m/s t=-273.0C h=-1.0% p=-1.0hPa 403.021 MHz Type=RS41 ser=U2430390 Radiosonde
CT2IRJU24303902022-12-07 11:21:4838.8076-9.14374357431947Clb=5.3m/s p=803.5hPa t=5.3C h=96.7% 403.020MHz Type=RS41-SGP rdzTTGOsonde
CT7ARW-11U24303902022-12-07 11:21:4738.8074-9.143746391935Clb=4.6m/s t=5.3C h=97.3% p=804.5hPa 403.020 MHz Type=RS41-SGP ser=U2430390 Radiosonde
CT2IWF-11U24303902022-12-07 11:21:4638.8073-9.143768431931Clb=5.5m/s t=5.4C h=97.2% p=805.0hPa 403.020 MHz Type=RS41-SGP ser=U2430390 Radiosonde
CS5LAS-11U24303902022-12-07 11:21:3838.8062-9.143680501884Clb=5.9m/s 403.02MHz Type=RS41-SGP Aux[] BK=Off RS41Tracker 1.17
CT7ABP-10U24303902022-12-07 11:21:3738.8061-9.143684461879Clb=4.7m/s t=5.8C h=95.3% p=810.3hPa 403.020 MHz Type=RS41-SGP ser=U2430390 Radiosonde
CT2GAI-13U24303902022-12-07 11:21:3038.8055-9.1437354481850Clb=5.0m/s t=5.8C h=95.5% p=813.1hPa 403.021 MHz Type=RS41-SGP ser=U2430390 Radiosonde
CT2IRJU24303902022-12-07 11:21:2738.8052-9.143691521841Clb=4.9m/s p=814.0hPa t=5.7C h=97.4% 403.020MHz Type=RS41-SGP rdzTTGOsonde
CT1ESY-11U24303902022-12-07 11:21:2538.8047-9.14365350441814Clb=7.9m/s t=5.9C h=95.7% p=816.5hPa 403.020 MHz Type=RS41-SGP ser=U2430390 Radiosonde
CS5LAS-11U24303902022-12-07 11:21:1838.8039-9.14349355411770Clb=5.8m/s 403.02MHz Type=RS41-SGP Aux[] BK=Off RS41Tracker 1.17
CT2IWF-11U24303902022-12-07 11:21:1538.8037-9.143485411760Clb=4.3m/s t=6.2C h=93.0% p=821.9hPa 403.020 MHz Type=RS41-SGP ser=U2430390 Radiosonde
CT7AUS-11U24303902022-12-07 11:21:1238.8033-9.14349352501739Clb=6.1m/s t=6.4C h=92.0% p=824.0hPa 403.020 MHz Type=RS41-SGP ser=U2430390 Radiosonde
CT2IRJU24303902022-12-07 11:21:0738.8029-9.14339348431723Clb=4.9m/s p=825.6hPa t=6.5C h=91.1% 403.020MHz Type=RS41-SGP rdzTTGOsonde
CS5LAS-11U24303902022-12-07 11:20:5838.8017-9.14296355371659Clb=4.4m/s 403.02MHz Type=RS41-SGP Aux[] BK=Off RS41Tracker 1.17
CT1ESY-11U24303902022-12-07 11:20:5738.8013-9.14281345441635Clb=4.4m/s t=-273.0C h=-1.0% p=834.5hPa 403.020 MHz Type=RS41-SGP ser=U2430390 Radiosonde
CT2IRJU24303902022-12-07 11:20:5138.8008-9.14268351481612Clb=7.5m/s p=836.9hPa t=6.3C h=98.2% 403.020MHz Type=RS41-SGP rdzTTGOsonde
CT2IWF-11U24303902022-12-07 11:20:4838.8004-9.14258341351588Clb=5.8m/s t=6.5C h=96.4% p=839.4hPa 403.020 MHz Type=RS41-SGP ser=U2430390 Radiosonde
CT7ARW-11U24303902022-12-07 11:20:4638.8002-9.14249341431578Clb=4.7m/s t=6.6C h=97.0% p=840.3hPa 403.020 MHz Type=RS41-SGP ser=U2430390 Radiosonde
CT7AUS-11U24303902022-12-07 11:20:4438.8-9.14241346501569Clb=4.7m/s t=6.7C h=96.4% p=841.1hPa 403.020 MHz Type=RS41-SGP ser=U2430390 Radiosonde
CS5LAS-11U24303902022-12-07 11:20:3838.7996-9.14229341461554Clb=5.3m/s 403.02MHz Type=RS41-SGP Aux[] BK=Off RS41Tracker 1.17
CT2GAI-13U24303902022-12-07 11:20:3038.7988-9.14187333391512Clb=5.6m/s t=7.0C h=-1.0% p=-1.0hPa 403.021 MHz Type=RS41 ser=U2430390 Radiosonde
CT2IRJU24303902022-12-07 11:20:2838.7986-9.14178347411502Clb=5.0m/s p=847.9hPa t=7.1C h=88.2% 403.020MHz Type=RS41-SGP rdzTTGOsonde
CS5LAS-11U24303902022-12-07 11:20:1838.7974-9.14139344541448Clb=5.1m/s 403.02MHz Type=RS41-SGP Aux[] BK=Off RS41Tracker 1.17
CT7ARW-11U24303902022-12-07 11:20:1138.7966-9.14108347521409Clb=6.7m/s t=7.7C h=92.1% p=857.4hPa 403.020 MHz Type=RS41-SGP ser=U2430390 Radiosonde
CT7AUS-11U24303902022-12-07 11:20:1038.7964-9.14104343481403Clb=5.9m/s t=7.8C h=92.0% p=858.1hPa 403.020 MHz Type=RS41-SGP ser=U2430390 Radiosonde
CT2IRJU24303902022-12-07 11:20:0738.7962-9.14096350431393Clb=4.4m/s p=859.3hPa t=7.8C h=92.0% 403.020MHz Type=RS41-SGP rdzTTGOsonde
CS5LAS-11U24303902022-12-07 11:19:5838.7951-9.14058343501341Clb=6.5m/s 403.02MHz Type=RS41-SGP Aux[] BK=Off RS41Tracker 1.17
CT2IRJU24303902022-12-07 11:19:4638.794-9.14024354431284Clb=5.0m/s t=8.2C 403.020MHz Type=RS41-SGP rdzTTGOsonde
CT2IWF-11U24303902022-12-07 11:19:4238.7932-9.13983333431238Clb=5.4m/s t=8.4C h=88.3% p=875.4hPa 403.020 MHz Type=RS41-SGP ser=U2430390 Radiosonde
CT7ARW-11U24303902022-12-07 11:19:3938.7931-9.13977335441232Clb=7.6m/s t=8.4C h=87.8% p=876.2hPa 403.020 MHz Type=RS41-SGP ser=U2430390 Radiosonde
CT7AUS-11U24303902022-12-07 11:19:3838.7931-9.13977335441232Clb=7.6m/s t=8.4C h=87.8% p=876.2hPa 403.020 MHz Type=RS41-SGP ser=U2430390 Radiosonde
CT7ABP-10U24303902022-12-07 11:19:3538.7928-9.13959335431213Clb=5.1m/s t=8.6C h=87.9% p=878.0hPa 403.020 MHz Type=RS41-SGP ser=U2430390 Radiosonde
CT2IRJU24303902022-12-07 11:19:2538.7919-9.13909341411163Clb=5.3m/s t=9.0C 403.020MHz Type=RS41-SGP rdzTTGOsonde
CS5LAS-11U24303902022-12-07 11:19:1838.791-9.13867336441109Clb=6.2m/s 403.02MHz Type=RS41-SGP Aux[] BK=Off RS41Tracker 1.17
CT2IWF-11U24303902022-12-07 11:19:1338.7904-9.13838334431080Clb=6.8m/s t=-273.0C h=-1.0% p=892.2hPa 403.020 MHz Type=RS41-SGP ser=U2430390 Radiosonde
CT7AUS-11U24303902022-12-07 11:19:0738.7901-9.13812329371060Clb=6.0m/s t=9.5C h=-1.0% p=-1.0hPa 403.020 MHz Type=RS41-SGP ser=U2430390 Radiosonde
CT2IRJU24303902022-12-07 11:19:0438.7899-9.138336441050Clb=6.6m/s 403.020MHz Type=RS41-SGP rdzTTGOsonde
CS5LAS-11U24303902022-12-07 11:18:5838.7892-9.13756342391009Clb=7.0m/s 403.02MHz Type=RS41-SGP Aux[] BK=Off RS41Tracker 1.17
CT2IRJU24303902022-12-07 11:18:4238.7879-9.1368333348934Clb=4.6m/s 403.020MHz Type=RS41 rdzTTGOsonde
CS5LAS-11U24303902022-12-07 11:18:3838.7874-9.1365633537902Clb=4.5m/s 403.02MHz Type=RS41-SGP Aux[] BK=Off RS41Tracker 1.17
CT7AUS-11U24303902022-12-07 11:18:3638.7873-9.1365133339897Clb=7.2m/s t=10.6C h=-1.0% p=-1.0hPa 403.020 MHz Type=RS41-SGP ser=U2430390 Radiosonde
CT7ARW-11U24303902022-12-07 11:18:3538.7871-9.136433546885Clb=5.5m/s t=10.7C h=83.8% p=913.4hPa 403.020 MHz Type=RS41-SGP ser=U2430390 Radiosonde
CT7ABP-10U24303902022-12-07 11:18:3438.787-9.1363433448880Clb=5.3m/s t=10.8C h=83.6% p=913.9hPa 403.020 MHz Type=RS41-SGP ser=U2430390 Radiosonde
CT2IRJU24303902022-12-07 11:18:1838.7854-9.135634744799Clb=4.7m/s 403.020MHz Type=RS41 rdzTTGOsonde
CT7AUS-11U24303902022-12-07 11:18:0738.7838-9.1348633657731Clb=7.0m/s t=-273.0C h=-1.0% p=-1.0hPa 403.020 MHz Type=RS41 ser=U2430390 Radiosonde
CT7ARW-11U24303902022-12-07 11:18:0238.7834-9.1346532854715Clb=6.3m/s t=11.5C h=88.0% p=932.1hPa 403.020 MHz Type=RS41-SGP ser=U2430390 Radiosonde
CT7ABP-10U24303902022-12-07 11:17:3338.7796-9.1320132561562Clb=5.4m/s t=9.7C h=98.1% p=949.6hPa 403.020 MHz Type=RS41-SGP ser=U2430390 Radiosonde
CT7ARW-11U24303902022-12-07 11:17:3038.7794-9.1317631359553Clb=3.6m/s t=9.7C h=98.1% p=950.7hPa 403.020 MHz Type=RS41-SGP ser=U2430390 Radiosonde
CT7ARW-11U24303902022-12-07 11:16:5838.7772-9.1282528944396Clb=3.9m/s t=10.2C h=-1.0% p=-1.0hPa 403.020 MHz Type=RS41 ser=U2430390 Radiosonde
CT7ABP-10U24303902022-12-07 11:16:3338.776-9.1260923426257Clb=7.7m/s t=10.9C h=97.7% p=986.1hPa 403.020 MHz Type=RS41-SGP ser=U2430390 Radiosonde